Time;durP1;ratioP1;P1;durP2;ratioP2;P2;SDS_P1;SDS_P2;PMS_P1;PMS_P2;Temp;Humidity;BMP_temperature;BMP_pressure;BME280_temperature;BME280_humidity;BME280_pressure;Samples;Min_cycle;Max_cycle;Signal;HPM_P1;HPM_P2
2022/07/18 00:00:39;;;;;;;1.47;0.70;;;;;;;15.29;75.24;100154.38;1692759;83;21443;-66
2022/07/18 00:03:05;;;;;;;1.50;0.80;;;;;;;15.25;75.13;100151.52;1696058;82;21942;-66
2022/07/18 00:05:32;;;;;;;1.20;0.80;;;;;;;15.24;75.09;100148.46;1693266;83;21062;-66
2022/07/18 00:08:00;;;;;;;0.88;0.65;;;;;;;15.26;75.33;100159.38;1707870;82;21543;-67
2022/07/18 00:10:27;;;;;;;0.98;0.68;;;;;;;15.31;75.21;100157.34;1696424;82;21426;-67
2022/07/18 00:12:55;;;;;;;4.05;0.78;;;;;;;15.36;75.08;100157.09;1695380;83;21591;-66
2022/07/18 00:15:23;;;;;;;1.77;0.80;;;;;;;15.33;74.68;100158.12;1706524;82;21781;-66
2022/07/18 00:17:49;;;;;;;1.20;0.85;;;;;;;15.28;74.75;100153.53;1711508;82;21664;-66
2022/07/18 00:20:17;;;;;;;3.02;0.70;;;;;;;15.30;74.67;100154.77;1704243;82;21556;-67
2022/07/18 00:22:43;;;;;;;1.12;0.90;;;;;;;15.23;74.72;100165.31;1701057;82;21448;-67
2022/07/18 00:25:10;;;;;;;2.10;0.98;;;;;;;15.18;74.70;100159.80;1707680;82;21589;-66
2022/07/18 00:27:38;;;;;;;2.22;1.10;;;;;;;15.10;75.02;100164.62;1712621;82;21392;-65
2022/07/18 00:30:08;;;;;;;5.13;0.93;;;;;;;15.11;74.98;100161.06;1704584;82;21606;-65
2022/07/18 00:32:34;;;;;;;0.82;0.82;;;;;;;15.05;75.31;100161.84;1700870;83;21508;-65
2022/07/18 00:35:01;;;;;;;1.32;0.72;;;;;;;15.05;75.15;100161.84;1701441;82;21637;-65
2022/07/18 00:37:28;;;;;;;2.92;0.90;;;;;;;15.02;75.37;100163.34;1701139;82;21523;-67
2022/07/18 00:39:55;;;;;;;2.60;0.93;;;;;;;14.93;75.50;100160.70;1689908;82;21942;-66
2022/07/18 00:42:21;;;;;;;1.52;0.98;;;;;;;14.92;75.72;100170.45;1710427;82;21504;-66
2022/07/18 00:44:56;;;;;;;1.90;0.88;;;;;;;14.90;75.77;100173.64;1706496;82;21491;-67
2022/07/18 00:47:23;;;;;;;1.10;1.00;;;;;;;14.88;75.79;100175.52;1696969;83;21505;-64
2022/07/18 00:49:49;;;;;;;1.20;0.90;;;;;;;14.50;76.98;100177.44;1703570;82;21431;-66
2022/07/18 00:52:16;;;;;;;1.05;0.88;;;;;;;14.41;77.95;100187.56;1701195;82;21605;-66
2022/07/18 00:54:43;;;;;;;1.30;1.20;;;;;;;14.62;78.11;100178.63;1703388;82;21497;-66
2022/07/18 00:57:11;;;;;;;1.10;1.00;;;;;;;14.73;76.96;100181.58;1707166;82;21444;-66
2022/07/18 01:02:25;;;;;;;1.12;0.80;;;;;;;14.72;76.76;100183.38;1702068;82;21578;-66
2022/07/18 01:04:53;;;;;;;1.00;0.90;;;;;;;14.70;76.87;100183.93;1708091;82;21767;-67
2022/07/18 01:07:20;;;;;;;1.07;0.90;;;;;;;14.64;76.93;100189.55;1687156;82;21537;-66
2022/07/18 01:09:47;;;;;;;1.95;0.70;;;;;;;14.64;77.10;100186.90;1678922;83;21468;-66
2022/07/18 01:12:13;;;;;;;2.10;1.00;;;;;;;14.68;77.08;100177.02;1689885;83;21665;-65
2022/07/18 01:14:40;;;;;;;2.05;1.10;;;;;;;14.71;76.79;100181.69;1684100;83;21002;-65
2022/07/18 01:17:16;;;;;;;1.32;1.02;;;;;;;14.69;76.69;100182.23;1684096;83;21917;-65
2022/07/18 01:19:43;;;;;;;4.58;1.07;;;;;;;14.66;76.73;100182.38;1681895;83;20969;-67
2022/07/18 01:22:11;;;;;;;1.52;1.00;;;;;;;14.66;76.62;100179.73;1688878;83;21587;-67
2022/07/18 01:24:41;;;;;;;2.42;1.00;;;;;;;14.63;76.81;100179.87;1682708;83;21027;-66
2022/07/18 01:27:08;;;;;;;1.20;1.10;;;;;;;14.59;76.93;100179.66;1680506;83;21584;-66
2022/07/18 01:29:34;;;;;;;1.90;1.07;;;;;;;14.61;76.83;100185.72;1688576;83;21921;-67
2022/07/18 01:32:06;;;;;;;1.50;1.10;;;;;;;14.58;76.82;100180.61;1677060;83;21534;-65
2022/07/18 01:34:33;;;;;;;2.02;0.90;;;;;;;14.61;76.79;100183.08;1746596;80;21466;-65
2022/07/18 01:37:02;;;;;;;1.65;1.07;;;;;;;14.64;76.79;100188.22;1733447;80;21516;-64
2022/07/18 01:39:28;;;;;;;1.05;0.93;;;;;;;14.67;76.69;100180.11;1717939;82;21493;-64
2022/07/18 01:42:01;;;;;;;3.02;0.90;;;;;;;14.67;76.62;100191.17;1725925;81;21767;-65
2022/07/18 01:44:29;;;;;;;1.47;1.20;;;;;;;14.67;76.49;100182.75;1732924;80;21417;-64
2022/07/18 01:46:57;;;;;;;1.45;1.30;;;;;;;14.64;76.85;100180.28;1722968;80;21555;-64
2022/07/18 01:49:27;;;;;;;1.45;1.02;;;;;;;14.67;76.82;100189.37;1727082;81;21446;-64
2022/07/18 01:51:54;;;;;;;2.72;1.30;;;;;;;14.73;76.58;100185.55;1730648;81;21550;-64
2022/07/18 01:54:25;;;;;;;1.65;0.95;;;;;;;14.76;76.48;100185.41;1715135;81;22102;-65
2022/07/18 01:56:52;;;;;;;1.52;1.42;;;;;;;14.83;76.24;100186.80;1732407;80;21574;-64
2022/07/18 01:59:19;;;;;;;0.80;0.80;;;;;;;14.89;75.84;100185.63;1728964;81;28769;-65
2022/07/18 02:01:46;;;;;;;2.47;1.65;;;;;;;14.85;76.02;100192.03;1730613;81;21464;-64
2022/07/18 02:04:13;;;;;;;1.65;1.05;;;;;;;14.83;76.09;100200.05;1729394;80;21635;-64
2022/07/18 02:06:39;;;;;;;1.20;1.10;;;;;;;14.88;76.04;100205.97;1738497;80;21835;-64
2022/07/18 02:09:08;;;;;;;1.87;1.40;;;;;;;14.88;76.01;100206.41;1737156;80;21422;-65
2022/07/18 02:11:35;;;;;;;0.95;0.90;;;;;;;14.85;76.11;100201.30;1750817;80;21476;-64
2022/07/18 02:14:04;;;;;;;1.20;1.10;;;;;;;14.82;76.19;100205.41;1747547;80;21467;-64
2022/07/18 02:16:32;;;;;;;1.35;1.25;;;;;;;14.77;76.18;100203.02;1739824;80;21061;-65
2022/07/18 02:18:58;;;;;;;1.40;1.22;;;;;;;14.77;76.16;100198.57;1740120;80;21827;-65
2022/07/18 02:21:25;;;;;;;2.98;1.30;;;;;;;14.80;76.09;100206.80;1745932;80;21625;-65
2022/07/18 02:23:51;;;;;;;3.55;1.50;;;;;;;14.77;75.91;100201.22;1752536;80;21492;-65
2022/07/18 02:26:19;;;;;;;1.35;1.25;;;;;;;14.76;76.09;100208.75;1738644;80;22284;-65
2022/07/18 02:28:45;;;;;;;3.90;1.40;;;;;;;14.82;75.94;100212.03;1700571;82;21084;-65
2022/07/18 02:31:13;;;;;;;2.37;1.40;;;;;;;14.84;75.65;100208.36;1702855;82;21748;-66
2022/07/18 02:33:39;;;;;;;1.50;1.30;;;;;;;14.85;75.41;100210.08;1720884;82;21449;-65
2022/07/18 02:36:07;;;;;;;1.30;1.20;;;;;;;14.93;75.18;100213.66;1709674;82;21640;-65
2022/07/18 02:38:33;;;;;;;3.70;1.43;;;;;;;14.94;75.08;100209.61;1687420;83;21490;-65
2022/07/18 02:41:00;;;;;;;3.00;1.05;;;;;;;14.97;74.91;100204.61;1698983;82;21057;-65
2022/07/18 02:43:27;;;;;;;2.20;1.45;;;;;;;14.95;74.92;100207.33;1711196;82;21902;-65
2022/07/18 02:45:53;;;;;;;2.45;1.60;;;;;;;15.01;74.58;100211.93;1707931;82;21406;-66
2022/07/18 02:48:20;;;;;;;2.58;1.57;;;;;;;14.98;74.47;100208.98;1704046;82;21427;-65
2022/07/18 02:50:48;;;;;;;4.03;1.60;;;;;;;14.98;74.67;100212.48;1707627;82;21527;-65
2022/07/18 02:53:15;;;;;;;1.55;1.45;;;;;;;14.99;74.76;100217.30;1709150;82;21712;-64
2022/07/18 02:55:41;;;;;;;1.30;1.25;;;;;;;15.00;74.70;100212.41;1679774;83;21512;-64
2022/07/18 02:58:08;;;;;;;2.55;1.50;;;;;;;15.04;74.63;100219.25;1683305;84;21468;-63
2022/07/18 03:00:35;;;;;;;6.55;1.55;;;;;;;15.06;74.47;100222.67;1688293;83;21575;-64
2022/07/18 03:03:01;;;;;;;3.47;1.47;;;;;;;15.02;74.76;100215.83;1685169;84;21522;-63
2022/07/18 03:05:28;;;;;;;4.12;1.60;;;;;;;15.03;75.04;100223.30;1682974;83;21003;-64
2022/07/18 03:07:55;;;;;;;1.92;1.55;;;;;;;15.01;75.18;100223.37;1682013;83;21892;-64
2022/07/18 03:10:22;;;;;;;2.50;1.42;;;;;;;15.06;75.19;100226.64;1674569;83;21438;-64
2022/07/18 03:12:49;;;;;;;1.87;1.32;;;;;;;15.14;75.02;100227.13;1683866;83;21596;-64
2022/07/18 03:15:16;;;;;;;1.40;1.30;;;;;;;15.16;75.03;100229.22;1673525;83;21616;-64
2022/07/18 03:17:43;;;;;;;3.40;1.40;;;;;;;15.14;75.05;100238.16;1672133;83;21491;-64
2022/07/18 03:20:11;;;;;;;2.20;1.10;;;;;;;15.15;75.17;100242.06;1684320;82;21738;-64
2022/07/18 03:22:38;;;;;;;1.47;1.37;;;;;;;15.19;75.17;100238.78;1692361;83;21460;-64
2022/07/18 03:25:06;;;;;;;1.70;1.60;;;;;;;15.17;75.19;100242.83;1694914;82;21523;-63
2022/07/18 03:27:33;;;;;;;2.12;1.52;;;;;;;15.04;75.28;100222.38;1742344;80;21516;-64
2022/07/18 03:30:00;;;;;;;1.22;1.12;;;;;;;15.23;75.41;100249.59;1751997;80;21507;-64
2022/07/18 03:32:26;;;;;;;5.90;1.72;;;;;;;15.28;75.37;100248.05;1726469;80;21511;-64
2022/07/18 03:34:53;;;;;;;1.72;1.30;;;;;;;15.28;75.28;100253.34;1725818;81;21597;-63
2022/07/18 03:37:19;;;;;;;2.80;1.65;;;;;;;15.37;75.16;100254.19;1696059;82;21663;-66
2022/07/18 03:39:46;;;;;;;4.35;1.40;;;;;;;15.40;75.25;100247.86;1747929;80;21494;-66
2022/07/18 03:42:13;;;;;;;5.47;1.40;;;;;;;15.45;75.43;100255.10;1689981;84;21669;-65
2022/07/18 03:44:40;;;;;;;1.77;1.20;;;;;;;15.54;75.22;100259.44;1691550;82;21824;-65
2022/07/18 03:47:06;;;;;;;1.40;1.30;;;;;;;15.66;75.15;100255.74;1694727;82;21461;-65
2022/07/18 03:49:34;;;;;;;2.08;1.57;;;;;;;15.73;74.99;100259.78;1695941;82;21009;-65
2022/07/18 03:52:00;;;;;;;1.20;1.10;;;;;;;15.85;74.74;100251.16;1694338;83;21428;-66
2022/07/18 03:54:28;;;;;;;1.35;1.25;;;;;;;15.97;74.53;100253.60;1687643;83;21514;-65
2022/07/18 03:56:54;;;;;;;1.22;1.10;;;;;;;16.05;74.28;100253.17;1687664;82;21919;-64
2022/07/18 03:59:21;;;;;;;2.47;1.12;;;;;;;16.17;74.08;100255.63;1693993;83;21762;-64
2022/07/18 04:01:47;;;;;;;1.47;1.32;;;;;;;16.31;73.64;100249.05;1692002;82;21444;-64
2022/07/18 04:04:14;;;;;;;1.67;1.10;;;;;;;16.42;72.74;100242.66;1688975;82;21549;-64
2022/07/18 04:06:41;;;;;;;1.62;1.27;;;;;;;16.47;72.50;100243.73;1688707;83;21610;-63
2022/07/18 04:09:07;;;;;;;3.65;1.20;;;;;;;16.51;71.99;100237.30;1694964;83;22168;-64
2022/07/18 04:11:34;;;;;;;1.10;1.00;;;;;;;16.57;71.99;100242.24;1695083;83;21476;-64
2022/07/18 04:14:01;;;;;;;2.75;1.30;;;;;;;16.69;72.01;100249.51;1692298;82;21500;-64
2022/07/18 04:16:28;;;;;;;1.45;1.25;;;;;;;16.78;71.29;100241.94;1689829;83;21489;-63
2022/07/18 04:18:55;;;;;;;2.83;1.20;;;;;;;16.77;71.47;100239.76;1694461;82;21098;-64
2022/07/18 04:21:22;;;;;;;2.22;1.17;;;;;;;16.86;71.36;100244.56;1695836;82;21902;-65
2022/07/18 04:23:48;;;;;;;3.45;1.47;;;;;;;17.04;71.08;100253.22;1703870;83;21488;-62
2022/07/18 04:26:15;;;;;;;2.20;2.00;;;;;;;17.04;71.08;100253.22;1694467;82;21556;-63
2022/07/18 04:28:42;;;;;;;3.50;2.50;;;;;;;17.12;70.48;100252.30;1685791;82;21611;-63
2022/07/18 04:31:08;;;;;;;4.70;2.70;;;;;;;17.25;70.28;100249.76;1693543;82;21629;-63
2022/07/18 04:33:35;;;;;;;2.22;1.60;;;;;;;17.39;69.75;100249.39;1696515;83;21943;-63
2022/07/18 04:36:03;;;;;;;3.67;1.55;;;;;;;17.42;69.39;100255.38;1695137;82;21527;-63
2022/07/18 04:38:34;;;;;;;1.90;1.20;;;;;;;17.43;69.47;100254.89;1689688;82;21496;-62
2022/07/18 04:40:59;;;;;;;1.60;1.27;;;;;;;17.56;69.32;100248.34;1683633;82;21581;-63
2022/07/18 04:43:26;;;;;;;2.12;1.30;;;;;;;17.74;69.28;100246.32;1689314;83;21738;-63
2022/07/18 04:45:53;;;;;;;2.80;1.40;;;;;;;17.81;68.45;100241.84;1691236;82;23417;-64
2022/07/18 04:48:19;;;;;;;2.33;1.35;;;;;;;17.81;68.45;100241.84;1684432;82;21442;-64
2022/07/18 04:50:46;;;;;;;1.50;1.40;;;;;;;17.88;67.97;100247.67;1684854;82;21440;-62
2022/07/18 04:53:13;;;;;;;1.75;1.60;;;;;;;17.88;67.92;100245.86;1693511;82;21133;-63
2022/07/18 04:55:40;;;;;;;1.10;1.00;;;;;;;17.97;67.92;100252.86;1698988;82;21536;-63
2022/07/18 04:58:07;;;;;;;1.70;1.60;;;;;;;17.95;67.42;100252.11;1688813;82;21761;-63
2022/07/18 05:00:34;;;;;;;2.27;1.72;;;;;;;17.95;67.43;100251.66;1692822;82;21444;-63
2022/07/18 05:03:01;;;;;;;3.85;1.40;;;;;;;18.06;67.96;100264.25;1696909;82;21506;-63
2022/07/18 05:05:28;;;;;;;1.65;1.55;;;;;;;18.06;67.36;100261.13;1693132;82;21161;-63
2022/07/18 05:07:54;;;;;;;2.20;1.47;;;;;;;18.13;67.37;100256.25;1689130;82;21531;-62
2022/07/18 05:10:23;;;;;;;1.65;1.25;;;;;;;18.22;67.43;100262.80;1736818;80;22031;-62
2022/07/18 05:12:53;;;;;;;2.35;1.35;;;;;;;18.29;67.13;100258.80;1737188;80;21559;-63
2022/07/18 05:15:22;;;;;;;3.02;1.40;;;;;;;18.36;66.99;100253.91;1687547;82;22268;-63
2022/07/18 05:17:50;;;;;;;1.87;1.30;;;;;;;18.45;67.31;100252.81;1697769;82;21629;-63
2022/07/18 05:20:18;;;;;;;2.60;1.67;;;;;;;18.45;67.31;100252.81;1688553;84;21532;-63
2022/07/18 05:22:45;;;;;;;2.62;1.35;;;;;;;18.49;65.88;100248.98;1684135;83;21760;-62
2022/07/18 05:25:12;;;;;;;6.90;1.47;;;;;;;18.51;66.63;100255.55;1694699;82;21732;-63
2022/07/18 05:27:40;;;;;;;;;;;;;;;18.66;66.20;100257.19;1711345;82;21564;-64
2022/07/18 05:30:09;;;;;;;2.60;1.30;;;;;;;18.68;66.46;100253.97;1691028;82;20436;-62
2022/07/18 05:32:36;;;;;;;7.85;1.60;;;;;;;18.68;66.46;100253.97;1692175;82;21918;-62
2022/07/18 05:35:05;;;;;;;3.08;1.30;;;;;;;18.76;66.09;100252.12;1690016;82;21790;-61
2022/07/18 05:37:32;;;;;;;1.55;1.42;;;;;;;18.82;65.37;100246.89;1689828;82;21620;-61
2022/07/18 05:39:58;;;;;;;4.08;1.67;;;;;;;18.91;65.35;100250.27;1699059;82;21592;-61
2022/07/18 05:42:25;;;;;;;1.75;1.20;;;;;;;18.95;64.73;100251.77;1692691;82;20964;-62
2022/07/18 05:44:52;;;;;;;2.00;1.47;;;;;;;18.96;64.33;100249.94;1691662;82;21575;-61
2022/07/18 05:47:19;;;;;;;4.15;1.62;;;;;;;19.04;64.69;100251.14;1702897;81;21931;-62
2022/07/18 05:49:45;;;;;;;2.08;1.55;;;;;;;19.14;64.52;100251.84;1697074;83;20991;-62
2022/07/18 05:52:12;;;;;;;3.47;1.82;;;;;;;19.20;64.28;100243.41;1692343;82;21507;-61
2022/07/18 05:54:38;;;;;;;1.90;1.40;;;;;;;19.15;64.51;100247.71;1686193;82;21704;-62
2022/07/18 05:57:05;;;;;;;1.77;1.45;;;;;;;19.24;63.77;100247.56;1697281;82;21610;-63
2022/07/18 05:59:32;;;;;;;1.40;1.30;;;;;;;19.41;63.69;100247.23;1699768;81;21735;-61
2022/07/18 06:01:59;;;;;;;5.17;1.70;;;;;;;19.50;62.68;100250.23;1697479;82;21436;-62
2022/07/18 06:04:25;;;;;;;4.70;1.60;;;;;;;19.56;61.87;100249.79;1694755;83;21434;-63
2022/07/18 06:06:53;;;;;;;2.67;1.60;;;;;;;19.66;61.55;100248.16;1705376;82;21579;-62
2022/07/18 06:09:19;;;;;;;2.08;1.70;;;;;;;19.72;61.81;100246.87;1688298;83;21614;-64
2022/07/18 06:11:46;;;;;;;2.52;1.37;;;;;;;19.74;61.53;100247.64;1691722;83;21840;-64
2022/07/18 06:14:13;;;;;;;1.77;1.50;;;;;;;19.77;61.01;100235.44;1685196;82;21632;-62
2022/07/18 06:16:41;;;;;;;1.65;1.32;;;;;;;19.74;59.51;100235.64;1689116;82;21565;-62
2022/07/18 06:19:08;;;;;;;2.20;1.62;;;;;;;19.93;59.94;100231.16;1697575;82;21530;-64
2022/07/18 06:21:35;;;;;;;4.67;1.87;;;;;;;20.02;60.66;100236.70;1690183;83;21664;-64
2022/07/18 06:24:02;;;;;;;2.15;1.62;;;;;;;20.13;59.27;100229.23;1689766;82;21953;-64
2022/07/18 06:26:29;;;;;;;1.60;1.50;;;;;;;20.22;59.95;100232.55;1687124;82;21464;-63
2022/07/18 06:28:55;;;;;;;2.27;1.60;;;;;;;20.25;58.59;100227.49;1689082;82;21512;-62
2022/07/18 06:31:22;;;;;;;1.50;1.40;;;;;;;20.35;58.21;100226.32;1698116;82;21512;-62
2022/07/18 06:33:49;;;;;;;4.00;1.50;;;;;;;20.35;58.21;100226.32;1690356;82;21563;-63
2022/07/18 06:36:17;;;;;;;1.35;1.25;;;;;;;20.40;57.46;100219.67;1689466;82;22030;-63
2022/07/18 06:38:44;;;;;;;1.65;1.32;;;;;;;20.48;57.95;100216.42;1681477;82;21097;-65
2022/07/18 06:41:10;;;;;;;1.15;1.10;;;;;;;20.42;57.72;100218.23;1695951;82;21437;-62
2022/07/18 06:43:38;;;;;;;3.37;1.12;;;;;;;20.48;57.96;100219.09;1690065;82;21542;-62
2022/07/18 06:46:05;;;;;;;2.30;1.40;;;;;;;20.56;57.63;100215.34;1688707;83;21153;-62
2022/07/18 06:48:33;;;;;;;2.02;1.70;;;;;;;20.67;56.30;100213.73;1682412;82;21930;-62
2022/07/18 06:51:04;;;;;;;2.80;1.30;;;;;;;20.76;57.11;100219.72;1687933;82;21023;-62
2022/07/18 06:53:31;;;;;;;2.87;1.12;;;;;;;20.97;56.11;100220.73;1700469;82;21012;-63
2022/07/18 06:56:04;;;;;;;1.67;1.57;;;;;;;21.05;56.29;100216.61;1732586;80;21554;-63
2022/07/18 06:58:33;;;;;;;3.40;1.25;;;;;;;21.06;55.92;100219.64;1735184;80;20988;-63
2022/07/18 07:01:01;;;;;;;3.22;1.47;;;;;;;21.08;56.03;100212.34;1738529;80;21757;-64
2022/07/18 07:03:29;;;;;;;1.52;1.40;;;;;;;21.26;54.97;100222.95;1698248;82;21506;-63
2022/07/18 07:05:55;;;;;;;;;;;;;;;21.26;54.97;100222.95;1737644;80;21604;-63
2022/07/18 07:08:22;;;;;;;2.80;1.62;;;;;;;21.30;55.18;100219.55;1735569;80;20461;-63
2022/07/18 07:10:48;;;;;;;2.02;1.40;;;;;;;21.36;55.59;100217.26;1727336;80;21535;-63
2022/07/18 07:13:15;;;;;;;1.95;1.20;;;;;;;21.44;55.64;100220.70;1739859;80;21506;-62
2022/07/18 07:15:42;;;;;;;5.87;1.70;;;;;;;21.47;55.94;100219.09;1735159;80;21074;-62
2022/07/18 07:18:10;;;;;;;2.60;1.57;;;;;;;21.50;54.81;100220.70;1688163;84;21602;-63
2022/07/18 07:20:37;;;;;;;2.05;1.40;;;;;;;21.56;54.99;100217.03;1685107;82;21463;-62
2022/07/18 07:23:07;;;;;;;2.65;1.55;;;;;;;21.67;53.74;100209.98;1681911;83;21677;-62
2022/07/18 07:25:33;;;;;;;1.75;1.27;;;;;;;21.76;53.95;100215.44;1674445;83;21910;-62
2022/07/18 07:28:00;;;;;;;3.08;1.50;;;;;;;21.71;51.79;100202.07;1679132;83;21449;-62
2022/07/18 07:30:27;;;;;;;2.37;1.42;;;;;;;21.75;52.19;100209.70;1678939;83;21460;-62
2022/07/18 07:32:54;;;;;;;2.25;1.30;;;;;;;21.97;52.36;100202.63;1731009;80;21120;-62
2022/07/18 07:35:20;;;;;;;3.90;1.17;;;;;;;22.13;52.23;100203.55;1726576;80;21483;-64
2022/07/18 07:37:51;;;;;;;2.12;1.32;;;;;;;22.29;51.70;100200.00;1729846;80;21849;-63
2022/07/18 07:40:18;;;;;;;1.70;1.20;;;;;;;22.48;51.75;100203.33;1730026;80;20987;-62
2022/07/18 07:42:45;;;;;;;2.13;1.13;;;;;;;22.61;49.95;100195.61;1728091;80;21586;-62
2022/07/18 07:45:13;;;;;;;1.27;1.07;;;;;;;22.67;49.20;100202.63;1729980;80;21508;-59
2022/07/18 07:47:40;;;;;;;1.82;1.10;;;;;;;22.65;48.97;100194.37;1732297;80;25613;-60
2022/07/18 07:50:08;;;;;;;3.67;1.05;;;;;;;22.54;48.38;100199.28;1739075;80;21901;-61
2022/07/18 07:52:35;;;;;;;2.62;1.20;;;;;;;22.54;48.06;100196.11;1726670;80;21550;-61
2022/07/18 07:55:01;;;;;;;4.42;0.90;;;;;;;22.55;47.58;100195.64;1734888;80;21573;-61
2022/07/18 07:57:29;;;;;;;1.87;1.10;;;;;;;22.58;48.89;100202.06;1686928;82;21535;-60
2022/07/18 07:59:55;;;;;;;4.05;0.93;;;;;;;22.75;48.97;100197.95;1683216;84;21661;-61
2022/07/18 08:02:23;;;;;;;1.60;0.82;;;;;;;22.90;47.26;100202.50;1690154;82;21559;-63
2022/07/18 08:04:50;;;;;;;1.42;1.10;;;;;;;22.96;47.00;100195.76;1690053;82;21630;-62
2022/07/18 08:07:16;;;;;;;1.55;0.93;;;;;;;22.99;46.90;100188.80;1691134;82;21579;-63
2022/07/18 08:09:44;;;;;;;2.25;1.50;;;;;;;23.08;46.96;100193.41;1692382;82;21576;-61
2022/07/18 08:12:12;;;;;;;;;;;;;;;23.16;46.56;100203.47;1700278;82;21625;-62
2022/07/18 08:14:40;;;;;;;3.87;0.80;;;;;;;23.23;46.65;100193.41;1688733;82;22040;-62
2022/07/18 08:17:06;;;;;;;2.17;0.93;;;;;;;23.29;46.54;100186.66;1688647;82;21565;-62
2022/07/18 08:19:35;;;;;;;2.67;1.12;;;;;;;23.34;45.45;100181.75;1704927;82;21502;-63
2022/07/18 08:22:02;;;;;;;2.65;0.90;;;;;;;23.68;45.67;100180.10;1702019;82;21502;-60
2022/07/18 08:24:28;;;;;;;3.27;0.90;;;;;;;23.39;45.70;100187.53;1692878;82;21502;-63
2022/07/18 08:26:55;;;;;;;1.52;0.80;;;;;;;23.31;44.88;100180.66;1681240;82;22133;-62
2022/07/18 08:29:22;;;;;;;2.58;0.78;;;;;;;23.43;45.54;100178.73;1689690;82;21071;-62
2022/07/18 08:31:49;;;;;;;1.85;0.80;;;;;;;23.54;45.47;100173.25;1691790;82;21475;-62
2022/07/18 08:34:16;;;;;;;1.30;0.72;;;;;;;23.91;44.30;100175.37;1687962;82;21041;-62
2022/07/18 08:36:43;;;;;;;2.90;0.80;;;;;;;24.07;43.49;100164.94;1683143;82;21522;-62
2022/07/18 08:39:10;;;;;;;0.40;0.40;;;;;;;24.23;43.66;100172.94;1684082;83;21808;-63
2022/07/18 08:41:37;;;;;;;0.47;0.47;;;;;;;24.27;43.48;100175.69;1672436;83;21426;-62
2022/07/18 08:44:05;;;;;;;0.70;0.45;;;;;;;24.41;42.14;100174.40;1673830;83;21539;-62
2022/07/18 08:46:31;;;;;;;;;;;;;;;24.23;40.67;100169.73;1693678;82;21558;-62
2022/07/18 08:48:59;;;;;;;0.57;0.53;;;;;;;24.24;41.52;100183.55;1703545;82;20158;-61
2022/07/18 08:51:26;;;;;;;2.12;0.70;;;;;;;24.22;42.42;100181.97;1684438;82;21927;-62
2022/07/18 08:53:53;;;;;;;0.50;0.50;;;;;;;24.26;42.57;100186.94;1683951;83;21008;-62
2022/07/18 08:56:20;;;;;;;0.68;0.40;;;;;;;24.33;40.48;100180.98;1695139;82;21518;-63
2022/07/18 08:58:47;;;;;;;4.07;0.60;;;;;;;24.41;40.97;100186.49;1677644;83;21167;-62
2022/07/18 09:01:13;;;;;;;0.87;0.60;;;;;;;24.55;40.61;100174.52;1698242;82;22278;-62
2022/07/18 09:03:40;;;;;;;1.42;0.50;;;;;;;24.62;41.17;100179.64;1687684;83;22005;-62
2022/07/18 09:06:13;;;;;;;0.70;0.50;;;;;;;24.66;40.89;100171.67;1691303;82;21435;-61
2022/07/18 09:08:59;;;;;;;0.55;0.50;;;;;;;24.80;40.94;100171.20;1687736;82;21577;-61
2022/07/18 09:11:26;;;;;;;0.50;0.30;;;;;;;24.94;40.76;100167.22;1702404;82;21483;-61
2022/07/18 09:13:52;;;;;;;5.33;0.60;;;;;;;24.93;39.36;100176.27;1707342;82;21601;-60
2022/07/18 09:16:21;;;;;;;2.10;0.40;;;;;;;24.76;39.22;100169.80;1707546;82;22863;-61
2022/07/18 09:18:48;;;;;;;0.40;0.40;;;;;;;24.78;39.82;100167.81;1707139;82;21430;-62
2022/07/18 09:23:06;;;;;;;1.32;0.30;;;;;;;24.34;41.77;100167.42;1782096;78;23304;-62
2022/07/18 09:25:33;;;;;;;1.02;0.55;;;;;;;25.15;39.50;100160.28;1718458;82;21547;-61
2022/07/18 09:28:00;;;;;;;0.40;0.40;;;;;;;25.43;39.52;100171.11;1738325;80;21819;-64
2022/07/18 09:30:35;;;;;;;0.50;0.50;;;;;;;25.45;38.58;100162.39;1706831;81;20951;-62
2022/07/18 09:33:07;;;;;;;0.53;0.45;;;;;;;25.40;38.50;100164.67;1714293;81;21479;-62
2022/07/18 09:35:46;;;;;;;1.95;0.50;;;;;;;25.18;38.87;100168.04;1690914;83;21646;-60
2022/07/18 09:38:20;;;;;;;0.62;0.40;;;;;;;25.08;39.93;100167.23;1687603;83;21096;-62
2022/07/18 09:40:54;;;;;;;0.30;0.30;;;;;;;25.22;39.99;100163.22;1695167;83;21491;-61
2022/07/18 09:43:23;;;;;;;1.07;0.70;;;;;;;25.25;38.18;100166.49;1694959;83;21535;-64
2022/07/18 09:45:55;;;;;;;3.45;0.65;;;;;;;25.27;37.49;100166.34;1695107;83;21553;-63
2022/07/18 09:48:25;;;;;;;0.65;0.50;;;;;;;25.28;37.45;100162.68;1691736;83;21729;-65
2022/07/18 09:50:59;;;;;;;1.02;0.40;;;;;;;25.35;37.25;100152.98;1691086;83;21767;-68
2022/07/18 09:53:32;;;;;;;2.37;0.30;;;;;;;25.47;37.60;100155.48;1687542;83;21586;-62
2022/07/18 09:56:09;;;;;;;0.30;0.30;;;;;;;25.53;38.33;100153.06;1690233;83;21093;-62
2022/07/18 09:58:51;;;;;;;1.12;0.37;;;;;;;25.67;37.18;100161.63;1690517;83;21013;-62
2022/07/18 10:01:17;;;;;;;1.70;0.60;;;;;;;25.68;36.84;100153.40;1675042;83;21513;-63
2022/07/18 10:03:45;;;;;;;1.27;0.47;;;;;;;25.56;37.47;100155.46;1713257;82;21559;-63
2022/07/18 10:06:12;;;;;;;4.12;0.60;;;;;;;25.77;37.82;100157.88;1691565;83;21899;-64
2022/07/18 10:08:39;;;;;;;0.35;0.35;;;;;;;25.86;36.84;100156.61;1702098;83;21081;-62
2022/07/18 10:11:07;;;;;;;2.12;0.50;;;;;;;25.98;36.53;100152.23;1690851;83;21495;-64
2022/07/18 10:13:35;;;;;;;0.57;0.47;;;;;;;25.97;35.85;100149.18;1683472;83;21558;-65
2022/07/18 10:16:03;;;;;;;1.60;0.37;;;;;;;25.82;36.39;100156.06;1689071;83;21468;-64
2022/07/18 10:18:33;;;;;;;1.05;0.42;;;;;;;25.66;36.24;100151.87;1691673;83;21801;-63
2022/07/18 10:21:07;;;;;;;0.42;0.25;;;;;;;25.71;35.19;100154.93;1696070;83;21554;-64
2022/07/18 10:23:44;;;;;;;1.65;0.23;;;;;;;25.82;35.44;100148.86;1654336;84;21544;-63
2022/07/18 10:26:23;;;;;;;0.47;0.40;;;;;;;25.98;35.13;100144.66;1702854;82;21057;-63
2022/07/18 10:29:01;;;;;;;0.85;0.30;;;;;;;26.10;34.99;100139.89;1669726;83;21491;-63
2022/07/18 10:31:39;;;;;;;1.47;0.40;;;;;;;26.23;35.39;100146.56;1657430;83;21790;-64
2022/07/18 10:34:10;;;;;;;0.30;0.30;;;;;;;26.14;35.12;100138.57;1675119;83;21660;-64
2022/07/18 10:36:52;;;;;;;1.25;0.40;;;;;;;26.06;34.56;100139.85;1681552;82;21013;-63
2022/07/18 10:39:20;;;;;;;0.40;0.40;;;;;;;26.13;34.60;100143.63;1676200;83;21549;-63
2022/07/18 10:41:57;;;;;;;0.30;0.30;;;;;;;26.15;34.93;100138.93;1696235;82;21460;-64
2022/07/18 10:44:29;;;;;;;0.53;0.43;;;;;;;26.23;34.85;100144.38;1680880;82;21826;-64
2022/07/18 10:47:17;;;;;;;0.72;0.28;;;;;;;26.20;35.22;100140.64;1680717;82;21045;-65
2022/07/18 10:49:56;;;;;;;0.75;0.55;;;;;;;26.20;34.72;100127.16;1676689;83;21005;-63
2022/07/18 10:52:32;;;;;;;2.83;0.40;;;;;;;26.27;35.40;100128.24;1677589;83;21609;-63
2022/07/18 10:55:16;;;;;;;1.00;0.50;;;;;;;26.34;36.02;100121.74;1674929;83;21624;-63
2022/07/18 10:57:53;;;;;;;0.35;0.35;;;;;;;26.31;35.09;100137.70;1690030;82;22006;-62
2022/07/18 11:03:22;;;;;;;2.00;0.40;;;;;;;26.33;34.83;100122.73;1668740;85;21553;-63
2022/07/18 11:05:53;;;;;;;0.68;0.33;;;;;;;26.46;34.59;100127.72;1677073;83;20970;-61
2022/07/18 11:08:24;;;;;;;1.00;0.40;;;;;;;26.56;35.22;100140.11;1671815;83;21609;-63
2022/07/18 11:11:01;;;;;;;0.35;0.35;;;;;;;26.54;34.68;100129.98;1668568;83;21985;-63
2022/07/18 11:13:31;;;;;;;1.02;0.42;;;;;;;26.60;34.36;100125.84;1665009;84;21505;-64
2022/07/18 11:16:22;;;;;;;1.22;0.62;;;;;;;26.68;34.05;100123.70;1668669;84;21430;-65
2022/07/18 11:18:58;;;;;;;0.98;0.30;;;;;;;26.72;33.71;100122.38;1657617;84;21014;-64
2022/07/18 11:21:33;;;;;;;0.50;0.40;;;;;;;26.83;34.72;100118.58;1661160;84;21077;-63
2022/07/18 11:24:06;;;;;;;0.65;0.30;;;;;;;26.95;32.81;100117.28;1664864;84;21747;-64
2022/07/18 11:26:34;;;;;;;0.42;0.40;;;;;;;26.78;32.19;100114.48;1659114;84;21544;-64
2022/07/18 11:29:08;;;;;;;2.15;0.40;;;;;;;26.61;33.28;100113.53;1658513;84;21805;-63
2022/07/18 11:31:57;;;;;;;1.87;0.40;;;;;;;26.51;33.63;100122.20;1660972;84;21542;-64
2022/07/18 11:34:47;;;;;;;0.50;0.33;;;;;;;26.14;33.92;100115.16;1665332;84;21606;-64
2022/07/18 11:37:14;;;;;;;3.92;0.47;;;;;;;25.84;34.41;100128.00;1655256;84;22478;-63
2022/07/18 11:39:40;;;;;;;0.35;0.35;;;;;;;25.68;35.23;100119.74;1659651;85;21561;-63